Time;durP1;ratioP1;P1;durP2;ratioP2;P2;SDS_P1;SDS_P2;PMS_P1;PMS_P2;Temp;Humidity;BMP_temperature;BMP_pressure;BME280_temperature;BME280_humidity;BME280_pressure;Samples;Min_cycle;Max_cycle;Signal;HPM_P1;HPM_P2
2021/06/25 00:01:41;;;;;;;22.30;6.50;;;;;;;;;;4973226;28;20070;-57
2021/06/25 00:04:07;;;;;;;18.70;6.10;;;;;;;;;;4973312;28;20035;-57
2021/06/25 00:06:33;;;;;;;21.35;6.22;;;;;;;;;;4973477;28;20025;-57
2021/06/25 00:08:59;;;;;;;18.90;5.63;;;;;;;;;;4973123;28;20030;-58
2021/06/25 00:11:25;;;;;;;16.20;5.50;;;;;;;;;;4973700;28;20018;-57
2021/06/25 00:13:52;;;;;;;15.50;5.22;;;;;;;;;;4972146;28;20023;-56
2021/06/25 00:16:18;;;;;;;24.20;7.35;;;;;;;;;;4979814;28;20025;-56
2021/06/25 00:18:44;;;;;;;20.00;5.68;;;;;;;;;;4973147;28;20030;-56
2021/06/25 00:21:10;;;;;;;23.23;6.13;;;;;;;;;;4972456;28;20057;-57
2021/06/25 00:23:36;;;;;;;23.17;6.25;;;;;;;;;;4972062;28;20500;-57
2021/06/25 00:26:03;;;;;;;18.95;5.45;;;;;;;;;;4972370;28;20033;-58
2021/06/25 00:28:29;;;;;;;19.75;5.60;;;;;;;;;;4975333;28;20023;-58
2021/06/25 00:30:55;;;;;;;52.97;23.73;;;;;;;;;;4975974;28;20035;-57
2021/06/25 00:33:21;;;;;;;26.90;10.55;;;;;;;;;;4991215;28;20125;-57
2021/06/25 00:35:47;;;;;;;24.50;8.48;;;;;;;;;;4976076;28;20027;-56
2021/06/25 00:38:13;;;;;;;17.73;6.35;;;;;;;;;;4975855;28;20081;-57
2021/06/25 00:40:39;;;;;;;30.83;10.07;;;;;;;;;;4975912;28;20477;-57
2021/06/25 00:43:05;;;;;;;21.92;7.38;;;;;;;;;;4975900;28;20039;-56
2021/06/25 00:45:31;;;;;;;21.95;6.75;;;;;;;;;;4976233;28;20473;-59
2021/06/25 00:47:58;;;;;;;25.48;6.63;;;;;;;;;;4976462;28;20054;-59
2021/06/25 00:50:26;;;;;;;20.52;6.80;;;;;;;;;;4976487;28;20023;-60
2021/06/25 00:52:53;;;;;;;21.55;6.47;;;;;;;;;;4976473;28;20069;-60
2021/06/25 00:55:19;;;;;;;21.20;6.70;;;;;;;;;;4976318;28;20403;-60
2021/06/25 00:57:46;;;;;;;22.95;6.90;;;;;;;;;;4976377;28;20031;-59
2021/06/25 01:00:12;;;;;;;33.78;6.75;;;;;;;;;;4990985;28;20482;-59
2021/06/25 01:02:38;;;;;;;19.40;6.63;;;;;;;;;;4976140;28;20035;-60
2021/06/25 01:05:06;;;;;;;23.13;6.60;;;;;;;;;;4976067;28;20027;-59
2021/06/25 01:07:32;;;;;;;21.02;6.22;;;;;;;;;;4976195;28;20481;-59
2021/06/25 01:09:59;;;;;;;18.95;5.50;;;;;;;;;;4976314;28;20034;-59
2021/06/25 01:12:25;;;;;;;24.58;7.50;;;;;;;;;;4976129;28;20023;-59
2021/06/25 01:14:52;;;;;;;23.70;7.03;;;;;;;;;;4976097;28;20492;-59
2021/06/25 01:17:34;;;;;;;17.42;5.55;;;;;;;;;;4975998;28;20433;-59
2021/06/25 01:20:01;;;;;;;19.95;5.50;;;;;;;;;;4975948;28;20030;-59
2021/06/25 01:22:34;;;;;;;19.55;5.78;;;;;;;;;;4975551;28;20447;-59
2021/06/25 01:25:13;;;;;;;24.05;6.30;;;;;;;;;;4975766;28;20023;-59
2021/06/25 01:27:39;;;;;;;21.35;6.40;;;;;;;;;;4975570;28;20661;-59
2021/06/25 01:30:07;;;;;;;21.80;6.68;;;;;;;;;;4975795;28;20031;-59
2021/06/25 01:32:33;;;;;;;21.02;6.25;;;;;;;;;;4975990;28;20057;-59
2021/06/25 01:35:01;;;;;;;18.48;5.70;;;;;;;;;;4975652;28;20114;-59
2021/06/25 01:37:28;;;;;;;23.95;6.15;;;;;;;;;;4975721;28;20065;-59
2021/06/25 01:39:54;;;;;;;20.45;6.32;;;;;;;;;;4975515;28;20025;-60
2021/06/25 01:42:20;;;;;;;23.15;6.50;;;;;;;;;;4975782;28;20033;-60
2021/06/25 01:44:46;;;;;;;23.88;6.60;;;;;;;;;;4975285;28;20035;-59
2021/06/25 01:47:14;;;;;;;23.67;6.45;;;;;;;;;;4975481;28;20027;-60
2021/06/25 01:49:40;;;;;;;15.85;5.18;;;;;;;;;;4975171;28;20031;-59
2021/06/25 01:52:06;;;;;;;18.13;5.78;;;;;;;;;;4975648;28;20070;-61
2021/06/25 01:54:32;;;;;;;24.88;7.18;;;;;;;;;;4975223;28;20038;-60
2021/06/25 01:56:59;;;;;;;24.02;6.32;;;;;;;;;;4975103;28;20021;-59
2021/06/25 01:59:25;;;;;;;21.83;6.25;;;;;;;;;;4975284;28;20042;-60
2021/06/25 02:01:51;;;;;;;22.52;5.70;;;;;;;;;;4974935;28;20030;-61
2021/06/25 02:04:17;;;;;;;21.13;6.40;;;;;;;;;;4975095;28;20037;-59
2021/06/25 02:06:43;;;;;;;26.55;7.22;;;;;;;;;;4974911;28;20042;-60
2021/06/25 02:09:09;;;;;;;19.33;6.22;;;;;;;;;;4974974;28;20026;-62
2021/06/25 02:11:35;;;;;;;23.95;6.63;;;;;;;;;;4975025;28;20023;-60
2021/06/25 02:14:01;;;;;;;22.45;6.82;;;;;;;;;;4974816;28;20015;-63
2021/06/25 02:16:27;;;;;;;25.48;7.25;;;;;;;;;;4975203;28;20026;-60
2021/06/25 02:18:53;;;;;;;23.60;7.78;;;;;;;;;;4974649;28;20023;-60
2021/06/25 02:21:19;;;;;;;31.02;7.88;;;;;;;;;;4974736;28;20038;-60
2021/06/25 02:23:46;;;;;;;18.58;8.57;;;;;;;;;;4974598;28;20043;-60
2021/06/25 02:26:12;;;;;;;30.17;10.07;;;;;;;;;;4974772;28;20408;-60
2021/06/25 02:28:38;;;;;;;21.10;7.72;;;;;;;;;;4974565;28;20023;-60
2021/06/25 02:31:04;;;;;;;22.63;7.68;;;;;;;;;;4974453;28;20047;-59
2021/06/25 02:33:30;;;;;;;27.77;6.93;;;;;;;;;;4974547;28;20046;-59
2021/06/25 02:35:56;;;;;;;19.98;6.18;;;;;;;;;;4974747;28;20437;-60
2021/06/25 02:38:23;;;;;;;22.55;6.68;;;;;;;;;;4974323;28;20050;-59
2021/06/25 02:40:49;;;;;;;21.02;6.00;;;;;;;;;;4974395;28;20033;-59
2021/06/25 02:43:15;;;;;;;19.30;6.25;;;;;;;;;;4974190;28;20031;-60
2021/06/25 02:45:41;;;;;;;23.65;5.93;;;;;;;;;;4974419;28;20381;-61
2021/06/25 02:48:07;;;;;;;19.48;6.30;;;;;;;;;;4974259;28;20029;-60
2021/06/25 02:50:33;;;;;;;17.20;6.13;;;;;;;;;;4973563;28;20125;-60
2021/06/25 02:52:59;;;;;;;28.02;6.43;;;;;;;;;;4974135;28;20027;-59
2021/06/25 02:55:26;;;;;;;23.52;6.93;;;;;;;;;;4974150;28;20074;-59
2021/06/25 02:57:52;;;;;;;20.95;6.65;;;;;;;;;;4974136;28;20031;-59
2021/06/25 03:00:19;;;;;;;19.33;6.03;;;;;;;;;;4974235;28;20029;-60
2021/06/25 03:02:45;;;;;;;23.83;6.30;;;;;;;;;;4974041;28;20043;-59
2021/06/25 03:05:12;;;;;;;16.25;6.15;;;;;;;;;;4973892;28;20537;-59
2021/06/25 03:07:39;;;;;;;24.10;6.75;;;;;;;;;;4974085;28;20069;-59
2021/06/25 03:10:05;;;;;;;17.77;6.13;;;;;;;;;;4973765;28;20130;-59
2021/06/25 03:12:32;;;;;;;23.13;6.82;;;;;;;;;;4974308;28;20098;-59
2021/06/25 03:14:58;;;;;;;23.85;5.63;;;;;;;;;;4988812;28;20035;-59
2021/06/25 03:17:24;;;;;;;24.00;6.20;;;;;;;;;;4973768;28;20022;-58
2021/06/25 03:19:50;;;;;;;25.92;7.55;;;;;;;;;;4973900;28;20111;-59
2021/06/25 03:22:16;;;;;;;20.85;6.07;;;;;;;;;;4973462;28;20031;-59
2021/06/25 03:24:42;;;;;;;19.92;6.50;;;;;;;;;;4973665;28;20031;-60
2021/06/25 03:27:09;;;;;;;22.08;7.40;;;;;;;;;;4973654;28;20023;-59
2021/06/25 03:29:35;;;;;;;19.90;6.07;;;;;;;;;;4973693;28;20023;-59
2021/06/25 03:32:01;;;;;;;28.92;7.25;;;;;;;;;;4973679;28;20047;-59
2021/06/25 03:34:28;;;;;;;30.55;7.78;;;;;;;;;;4973535;28;20027;-59
2021/06/25 03:36:54;;;;;;;23.35;6.75;;;;;;;;;;4973854;28;20377;-61
2021/06/25 03:39:20;;;;;;;22.98;6.50;;;;;;;;;;4973748;28;20086;-59
2021/06/25 03:41:46;;;;;;;19.08;7.10;;;;;;;;;;4973458;28;20043;-60
2021/06/25 03:44:13;;;;;;;25.50;6.63;;;;;;;;;;4973951;28;20097;-60
2021/06/25 03:46:39;;;;;;;23.90;7.22;;;;;;;;;;4973388;28;20022;-61
2021/06/25 03:49:07;;;;;;;21.35;7.38;;;;;;;;;;4974032;28;20026;-61
2021/06/25 03:51:33;;;;;;;23.83;9.13;;;;;;;;;;4973371;28;20023;-61
2021/06/25 03:53:59;;;;;;;31.50;8.85;;;;;;;;;;4973579;28;20026;-61
2021/06/25 03:56:25;;;;;;;29.23;10.88;;;;;;;;;;4973459;28;20027;-61
2021/06/25 03:58:52;;;;;;;34.72;12.75;;;;;;;;;;4973473;28;20550;-61
2021/06/25 04:01:20;;;;;;;24.90;9.30;;;;;;;;;;4974525;28;20033;-61
2021/06/25 04:03:46;;;;;;;17.13;7.68;;;;;;;;;;4977078;28;20409;-61
2021/06/25 04:06:12;;;;;;;21.48;7.97;;;;;;;;;;4977206;28;20023;-61
2021/06/25 04:08:38;;;;;;;30.10;10.25;;;;;;;;;;4977105;28;20054;-61
2021/06/25 04:11:05;;;;;;;23.00;7.88;;;;;;;;;;4977064;28;20462;-61
2021/06/25 04:13:32;;;;;;;27.63;8.25;;;;;;;;;;4977044;28;20027;-61
2021/06/25 04:15:58;;;;;;;27.08;8.23;;;;;;;;;;4976975;28;20114;-61
2021/06/25 04:18:25;;;;;;;20.13;7.95;;;;;;;;;;4977068;28;20022;-61
2021/06/25 04:20:52;;;;;;;23.10;6.80;;;;;;;;;;4976746;28;20106;-61
2021/06/25 04:23:18;;;;;;;27.70;6.80;;;;;;;;;;4977093;28;20034;-59
2021/06/25 04:25:45;;;;;;;26.73;7.32;;;;;;;;;;4976703;28;20110;-59
2021/06/25 04:28:12;;;;;;;26.10;7.72;;;;;;;;;;4977026;28;20111;-60
2021/06/25 04:30:40;;;;;;;24.27;7.80;;;;;;;;;;4976802;28;20479;-59
2021/06/25 04:33:08;;;;;;;19.83;7.10;;;;;;;;;;4976817;28;20050;-59
2021/06/25 04:35:34;;;;;;;27.50;8.00;;;;;;;;;;4976660;28;20026;-59
2021/06/25 04:38:03;;;;;;;25.08;8.13;;;;;;;;;;4976562;28;20046;-59
2021/06/25 04:40:29;;;;;;;27.55;7.68;;;;;;;;;;4976671;28;20019;-73
2021/06/25 04:42:55;;;;;;;36.95;7.80;;;;;;;;;;4976393;28;20034;-72
2021/06/25 04:45:22;;;;;;;21.15;8.18;;;;;;;;;;4976479;28;20585;-72
2021/06/25 04:47:48;;;;;;;25.10;9.07;;;;;;;;;;4976484;28;20053;-72
2021/06/25 04:50:14;;;;;;;30.20;8.93;;;691.90;1254.40;;;;;;4976814;28;20420;-70
2021/06/25 04:52:40;;;;;;;32.13;10.85;;;692.00;1228.80;;;;;;4976402;28;20026;-70
2021/06/25 04:55:07;;;;;;;27.70;10.07;;;692.10;1228.80;;;;;;4976186;28;20030;-71
2021/06/25 04:57:33;;;;;;;27.98;7.82;;;692.00;1228.80;;;;;;4976302;28;20023;-71
2021/06/25 04:59:59;;;;;;;29.55;8.35;;;;;;;;;;4976146;28;20478;-72
2021/06/25 05:02:25;;;;;;;28.70;7.88;;;716.90;1254.40;;;;;;4976230;28;20045;-70
2021/06/25 05:04:51;;;;;;;34.30;8.82;;;716.90;1254.40;;;;;;4976241;28;20022;-70
2021/06/25 05:07:17;;;;;;;24.65;8.30;;;;;;;;;;4975850;28;20037;-72
2021/06/25 05:09:43;;;;;;;42.83;16.70;;;;;;;;;;4976106;28;20030;-72
2021/06/25 05:12:09;;;;;;;31.65;14.18;;;;;;;;;;4975700;28;20030;-72
2021/06/25 05:14:35;;;;;;;31.30;10.60;;;;;;;;;;4975472;28;20073;-71
2021/06/25 05:17:01;;;;;;;31.73;11.65;;;;;;;;;;4975736;28;20065;-72
2021/06/25 05:19:27;;;;;;;29.17;8.40;;;717.50;1280.00;;;;;;4975973;28;20481;-72
2021/06/25 05:21:53;;;;;;;25.35;8.23;;;717.50;1254.40;;;;;;4975703;28;20157;-73
2021/06/25 05:24:18;;;;;;;22.20;8.10;;;717.60;1228.80;;;;;;4975737;28;20065;-71
2021/06/25 05:26:44;;;;;;;20.02;6.75;;;717.60;1228.80;;;;;;4975941;28;20073;-71
2021/06/25 05:29:10;;;;;;;19.83;7.07;;;742.40;1280.00;;;;;;4975979;28;20035;-71
2021/06/25 05:31:35;;;;;;;32.25;8.25;;;742.50;1280.00;;;;;;4975618;28;20043;-72
2021/06/25 05:34:01;;;;;;;17.98;7.50;;;742.60;1280.00;;;;;;4975603;28;20038;-72
2021/06/25 05:36:27;;;;;;;24.05;8.43;;;742.80;1280.00;;;;;;4975430;28;20129;-71
2021/06/25 05:38:53;;;;;;;29.58;8.48;;;;;;;;;;4975535;28;20078;-71
2021/06/25 05:41:19;;;;;;;25.17;8.27;;;;;;;;;;4975271;28;20023;-73
2021/06/25 05:43:45;;;;;;;25.40;6.70;;;;;;;;;;4975731;28;20035;-72
2021/06/25 05:46:12;;;;;;;22.70;7.45;;;;;;;;;;4975242;28;20059;-71
2021/06/25 05:48:38;;;;;;;24.63;6.75;;;;;;;;;;4975418;28;20422;-72
2021/06/25 05:51:05;;;;;;;21.80;6.78;;;;;;;;;;4975320;28;20035;-72
2021/06/25 05:53:32;;;;;;;26.25;7.18;;;;;;;;;;4989608;28;20037;-72
2021/06/25 05:55:58;;;;;;;31.17;10.27;;;;;;;;;;4975081;28;20603;-72
2021/06/25 05:58:24;;;;;;;33.83;10.18;;;;;;;;;;4975263;28;20042;-72
2021/06/25 06:00:50;;;;;;;36.45;10.93;;;;;;;;;;4975164;28;20049;-71
2021/06/25 06:03:16;;;;;;;18.52;7.28;;;;;;;;;;4974880;28;20117;-71
2021/06/25 06:05:42;;;;;;;28.08;9.35;;;;;;;;;;4975003;28;20018;-72
2021/06/25 06:08:09;;;;;;;32.00;8.05;;;;;;;;;;4974786;28;20027;-72
2021/06/25 06:10:35;;;;;;;33.78;10.18;;;;;;;;;;4974775;28;20019;-72
2021/06/25 06:13:02;;;;;;;24.38;8.23;;;;;;;;;;4974884;28;20105;-72
2021/06/25 06:15:28;;;;;;;22.83;7.32;;;;;;;;;;4974692;28;20029;-72
2021/06/25 06:17:56;;;;;;;33.03;8.60;;;;;;;;;;4974728;28;20023;-71
2021/06/25 06:20:25;;;;;;;14.27;7.05;;;;;;;;;;5003363;28;20089;-72
2021/06/25 06:34:22;;;;;;;25.60;8.40;;;;;;;;;;4933885;29;20048;-73
2021/06/25 06:36:47;;;;;;;18.25;6.72;;;;;;;;;;4933457;29;20032;-72
2021/06/25 06:39:14;;;;;;;22.90;7.00;;;;;;;;;;4933833;29;20031;-72
2021/06/25 06:41:41;;;;;;;17.38;6.10;;;;;;;;;;4933478;29;20024;-73
2021/06/25 06:44:07;;;;;;;23.33;7.63;;;;;;;;;;4933705;29;20051;-72
2021/06/25 06:46:34;;;;;;;18.25;6.97;;;;;;;;;;4933712;29;20016;-73
2021/06/25 06:49:00;;;;;;;32.45;10.80;;;;;;;;;;4933813;29;20039;-72
2021/06/25 06:51:26;;;;;;;17.88;6.75;;;;;;;;;;4933551;29;20043;-72
2021/06/25 06:53:53;;;;;;;14.30;6.47;;;;;;;;;;4933641;29;20043;-72
2021/06/25 06:56:20;;;;;;;19.95;7.38;;;;;;;;;;4933205;29;20110;-72
2021/06/25 06:58:48;;;;;;;16.55;6.13;;;;;;;;;;4933456;29;20028;-72
2021/06/25 07:01:14;;;;;;;25.20;7.43;;;;;;;;;;4933377;29;20742;-72
2021/06/25 07:03:40;;;;;;;29.08;7.93;;;;;;;;;;4933235;29;20055;-72
2021/06/25 07:06:07;;;;;;;18.08;6.85;;;;;;;;;;4933461;29;20032;-72
2021/06/25 07:08:33;;;;;;;20.40;6.57;;;;;;;;;;4933278;29;20032;-72
2021/06/25 07:11:00;;;;;;;22.95;6.70;;;;;;;;;;4963367;28;20035;-71
2021/06/25 07:13:27;;;;;;;25.38;7.63;;;;;;;;;;4973728;28;20046;-72
2021/06/25 07:15:54;;;;;;;18.60;7.00;;;;;;;;;;4973693;28;20022;-71
2021/06/25 07:18:20;;;;;;;17.50;6.13;;;;;;;;;;4973710;28;20389;-72
2021/06/25 07:20:46;;;;;;;26.45;7.57;;;;;;;;;;4988545;28;20476;-72
2021/06/25 07:23:12;;;;;;;19.13;6.95;;;;;;;;;;4973817;28;20046;-72
2021/06/25 07:25:38;;;;;;;19.80;6.45;;;;;;;;;;4976291;28;20018;-72
2021/06/25 07:28:05;;;;;;;21.70;9.00;;;;;;;;;;4984199;28;20038;-72
2021/06/25 07:30:31;;;;;;;18.92;7.18;;;;;;;;;;4973509;28;20027;-72
2021/06/25 07:32:57;;;;;;;17.80;6.78;;;;;;;;;;4973434;28;20089;-73
2021/06/25 07:35:23;;;;;;;19.90;7.07;;;;;;;;;;4973346;28;20023;-71
2021/06/25 07:37:49;;;;;;;17.35;7.50;;;;;;;;;;4973264;28;20114;-72
2021/06/25 07:40:15;;;;;;;54.00;13.18;;;;;;;;;;4973479;28;20098;-71
2021/06/25 07:42:42;;;;;;;22.15;7.55;;;;;;;;;;4973299;28;20061;-72
2021/06/25 07:45:10;;;;;;;25.50;7.78;;;;;;;;;;4973345;28;20019;-71
2021/06/25 07:47:37;;;;;;;19.75;7.07;;;;;;;;;;4988031;28;20031;-71
2021/06/25 07:50:03;;;;;;;25.35;7.10;;;;;;;;;;4973298;28;20161;-72
2021/06/25 07:52:30;;;;;;;22.23;7.38;;;;;;;;;;4973856;28;20026;-73
2021/06/25 07:54:56;;;;;;;25.85;8.00;;;;;;;;;;4973266;28;20027;-73
2021/06/25 07:57:22;;;;;;;29.88;8.23;;;;;;;;;;4973512;28;20022;-73
2021/06/25 07:59:48;;;;;;;25.13;7.00;;;;;;;;;;4973027;28;20027;-73
2021/06/25 08:02:14;;;;;;;20.08;6.65;;;;;;;;;;4973543;28;20032;-73
2021/06/25 08:04:45;;;;;;;25.48;8.70;;;;;;;;;;4973290;28;20031;-73
2021/06/25 08:07:11;;;;;;;23.80;7.22;;;;;;;;;;4973161;28;20023;-73
2021/06/25 08:09:37;;;;;;;19.98;8.10;;;;;;;;;;4973719;28;20034;-73
2021/06/25 08:12:03;;;;;;;25.40;8.30;;;;;;;;;;4973095;28;20023;-72
2021/06/25 08:14:30;;;;;;;33.33;9.05;;;;;;;;;;4973322;28;20471;-74
2021/06/25 08:16:56;;;;;;;23.20;7.97;;;;;;;;;;4973221;28;20034;-73
2021/06/25 08:19:22;;;;;;;24.38;7.95;;;;;;;;;;4973031;28;20111;-73
2021/06/25 08:21:48;;;;;;;25.73;7.75;;;;;;;;;;4973188;28;20033;-71
2021/06/25 08:24:14;;;;;;;27.90;8.07;;;;;;;;;;4972937;28;20173;-72
2021/06/25 08:26:40;;;;;;;32.55;9.88;;;;;;;;;;4973297;28;20381;-72
2021/06/25 08:29:06;;;;;;;23.33;7.38;;;;;;;;;;4973261;28;20027;-73
2021/06/25 08:31:32;;;;;;;31.48;8.45;;;;;;;;;;4972900;28;20051;-73
2021/06/25 08:33:58;;;;;;;39.00;12.13;;;;;;;;;;4973175;28;20031;-72
2021/06/25 08:36:25;;;;;;;29.38;7.88;;;;;;;;;;4972962;28;20030;-71
2021/06/25 08:38:52;;;;;;;22.38;7.43;;;;;;;;;;4973052;28;20034;-71
2021/06/25 08:41:18;;;;;;;34.80;9.25;;;;;;;;;;4972744;28;20030;-74
2021/06/25 08:43:44;;;;;;;29.10;10.13;;;;;;;;;;4972851;28;20027;-71
2021/06/25 08:46:11;;;;;;;26.08;8.38;;;;;;;;;;4972956;28;20027;-73
2021/06/25 08:48:37;;;;;;;58.78;19.10;;;;;;;;;;4974408;28;20029;-73
2021/06/25 08:51:05;;;;;;;28.80;9.80;;;844.80;1049.60;;;;;;4976488;28;20504;-72
2021/06/25 08:53:31;;;;;;;29.83;8.73;;;820.10;1024.00;;;;;;4976220;28;20023;-71
2021/06/25 08:55:57;;;;;;;25.30;7.95;;;844.80;1024.00;;;;;;4976278;28;20062;-71
2021/06/25 08:58:23;;;;;;;25.90;8.02;;;844.80;1049.60;;;;;;4976037;28;20039;-71
2021/06/25 09:00:50;;;;;;;23.75;8.18;;;820.10;1024.00;;;;;;4976316;28;20482;-71
2021/06/25 09:03:22;;;;;;;37.60;9.07;;;820.10;1024.00;;;;;;4976345;28;20081;-72
2021/06/25 09:05:47;;;;;;;25.20;8.93;;;820.10;998.40;;;;;;4976170;28;20076;-71
2021/06/25 09:08:28;;;;;;;33.10;8.95;;;844.90;998.40;;;;;;4976100;28;20027;-71
2021/06/25 09:10:58;;;;;;;39.42;9.20;;;845.30;1024.00;;;;;;4976002;28;20070;-72
2021/06/25 09:13:36;;;;;;;17.60;7.17;;;845.30;1049.60;;;;;;4975882;28;20035;-72
2021/06/25 09:16:42;;;;;;;23.70;8.07;;;845.40;1049.60;;;;;;4975748;28;20110;-72
2021/06/25 09:19:19;;;;;;;15.85;7.07;;;845.70;1024.00;;;;;;4935049;29;20438;-72
2021/06/25 09:22:05;;;;;;;37.60;8.80;;;845.40;1024.00;;;;;;4935043;29;20024;-72
2021/06/25 09:24:31;;;;;;;33.35;10.00;;;845.60;998.40;;;;;;4935201;29;20047;-72
2021/06/25 09:26:59;;;;;;;23.25;8.05;;;845.70;972.80;;;;;;4935133;29;20501;-72
2021/06/25 09:29:28;;;;;;;26.85;8.13;;;845.60;998.40;;;;;;4934756;29;20027;-72
2021/06/25 09:32:06;;;;;;;58.67;28.45;;;845.70;998.40;;;;;;4934691;29;20051;-72
2021/06/25 09:34:40;;;;;;;167.88;101.38;;;845.70;972.80;;;;;;4934212;29;20051;-72
2021/06/25 09:37:10;;;;;;;150.32;90.00;;;870.50;998.40;;;;;;4935255;29;20036;-71
2021/06/25 09:39:37;;;;;;;190.43;120.07;;;870.40;998.40;;;;;;4952006;29;20033;-72
2021/06/25 09:42:03;;;;;;;146.63;86.15;;;845.60;1024.00;;;;;;4933850;29;20035;-78
2021/06/25 09:44:29;;;;;;;206.77;128.73;;;845.70;1024.00;;;;;;4934028;29;20043;-76
2021/06/25 09:46:55;;;;;;;85.00;41.63;;;845.70;998.40;;;;;;4933758;29;20027;-73
2021/06/25 09:49:31;;;;;;;276.20;175.55;;;870.60;972.80;;;;;;4944812;28;20035;-77
2021/06/25 09:52:02;;;;;;;100.93;56.45;;;845.70;998.40;;;;;;4974571;28;20027;-77
2021/06/25 09:54:30;;;;;;;277.48;180.38;;;870.60;972.80;;;;;;4974903;28;20027;-77
2021/06/25 09:57:09;;;;;;;220.07;147.65;;;870.70;972.80;;;;;;4974401;28;20489;-77
2021/06/25 10:02:17;;;;;;;44.13;19.17;;;870.70;947.20;;;;;;4974523;28;20045;-77
2021/06/25 10:04:44;;;;;;;147.48;92.63;;;871.10;947.20;;;;;;4973932;28;20038;-76
2021/06/25 10:07:15;;;;;;;39.67;19.60;;;870.90;947.20;;;;;;4973987;28;20041;-76
2021/06/25 10:09:42;;;;;;;148.45;98.50;;;871.00;921.60;;;;;;4974146;28;20505;-77
2021/06/25 10:12:10;;;;;;;73.43;37.90;;;870.90;972.80;;;;;;4973982;28;20018;-76
2021/06/25 10:14:37;;;;;;;89.80;56.03;;;870.90;947.20;;;;;;4974094;28;20466;-77
2021/06/25 10:17:05;;;;;;;84.40;49.25;;;870.80;998.40;;;;;;4973923;28;20033;-78
2021/06/25 10:19:31;;;;;;;68.68;39.15;;;870.80;998.40;;;;;;4966460;28;20030;-76
2021/06/25 10:22:02;;;;;;;65.15;37.20;;;870.80;972.80;;;;;;4974115;28;20023;-76
2021/06/25 10:24:31;;;;;;;;;;;870.90;972.80;;;;;;4974333;28;20027;-77
2021/06/25 10:26:58;;;;;;;40.78;19.48;;;870.80;972.80;;;;;;4967821;28;19980;-78
2021/06/25 10:29:25;;;;;;;28.13;8.55;;;870.70;972.80;;;;;;4974220;28;20031;-78
2021/06/25 10:31:52;;;;;;;32.65;15.20;;;871.10;921.60;;;;;;4974272;28;20042;-76
2021/06/25 10:34:18;;;;;;;38.08;17.17;;;871.10;947.20;;;;;;4973704;28;20051;-76
2021/06/25 10:36:44;;;;;;;36.75;16.13;;;871.10;947.20;;;;;;4973650;28;20022;-76
2021/06/25 10:39:13;;;;;;;31.55;12.13;;;871.00;947.20;;;;;;4973984;28;20054;-78
2021/06/25 10:41:55;;;;;;;32.22;11.95;;;871.30;947.20;;;;;;4973633;28;20416;-78
2021/06/25 10:44:33;;;;;;;38.00;10.63;;;871.30;947.20;;;;;;4973678;28;20038;-77
2021/06/25 10:47:27;;;;;;;34.80;7.85;;;871.30;947.20;;;;;;4973558;28;20037;-76
2021/06/25 10:49:59;;;;;;;34.00;10.88;;;896.70;870.40;;;;;;4973428;28;20034;-76
2021/06/25 10:52:29;;;;;;;27.45;8.73;;;896.30;896.00;;;;;;4973612;28;20027;-73
2021/06/25 10:55:12;;;;;;;24.48;10.15;;;;;;;;;;4973310;28;20035;-78
2021/06/25 10:57:58;;;;;;;23.02;8.32;;;;;;;;;;4973456;28;20015;-75
2021/06/25 11:00:25;;;;;;;24.85;8.88;;;896.90;870.40;;;;;;4955236;28;20109;-75
2021/06/25 11:02:53;;;;;;;32.72;8.65;;;896.90;870.40;;;;;;4973276;28;20482;-72
2021/06/25 11:05:21;;;;;;;26.30;8.88;;;921.60;870.40;;;;;;4973049;28;20030;-78
2021/06/25 11:07:48;;;;;;;30.92;8.68;;;922.00;870.40;;;;;;4973336;28;20027;-73
2021/06/25 11:10:24;;;;;;;31.83;8.93;;;921.70;896.00;;;;;;4972942;28;20106;-75
2021/06/25 11:13:10;;;;;;;30.85;8.30;;;921.60;896.00;;;;;;4973140;28;20165;-76
2021/06/25 11:15:37;;;;;;;23.92;8.38;;;921.60;896.00;;;;;;4973116;28;20098;-74
2021/06/25 11:18:16;;;;;;;21.25;8.65;;;921.60;896.00;;;;;;4973365;28;20026;-73
2021/06/25 11:21:00;;;;;;;29.80;9.00;;;921.60;896.00;;;;;;4973211;28;20078;-77
2021/06/25 11:23:27;;;;;;;32.42;8.52;;;921.80;896.00;;;;;;4973172;28;20417;-77
2021/06/25 11:25:57;;;;;;;30.23;8.43;;;921.80;896.00;;;;;;4973551;28;20378;-77
2021/06/25 11:28:38;;;;;;;21.45;7.80;;;921.70;896.00;;;;;;4973360;28;20031;-75
2021/06/25 11:31:08;;;;;;;30.20;9.07;;;921.90;896.00;;;;;;4973195;28;20047;-76
2021/06/25 11:33:49;;;;;;;26.48;12.32;;;922.30;870.40;;;;;;4973293;28;20054;-78
2021/06/25 11:36:21;;;;;;;30.38;12.82;;;922.00;896.00;;;;;;4973053;28;20027;-78
2021/06/25 11:39:03;;;;;;;39.65;19.65;;;922.10;896.00;;;;;;4973288;28;20054;-79
2021/06/25 11:41:38;;;;;;;109.40;78.90;;;922.00;896.00;;;;;;4973194;28;20069;-78
2021/06/25 11:44:24;;;;;;;86.15;50.75;;;922.00;896.00;;;;;;4973049;28;20031;-80
2021/06/25 11:47:19;;;;;;;76.22;49.03;;;922.00;896.00;;;;;;4973039;28;20057;-77
2021/06/25 11:52:27;;;;;;;79.10;53.88;;;921.80;896.00;;;;;;4973368;28;20023;-79
2021/06/25 11:54:56;;;;;;;46.78;24.05;;;921.80;921.60;;;;;;4973257;28;20437;-73
2021/06/25 11:57:30;;;;;;;29.67;9.90;;;922.00;896.00;;;;;;4973202;28;20067;-74
2021/06/25 12:00:10;;;;;;;69.80;43.15;;;922.20;870.40;;;;;;4972752;28;20042;-73
2021/06/25 12:02:58;;;;;;;48.63;26.52;;;921.90;896.00;;;;;;4972603;28;20513;-71
2021/06/25 12:05:25;;;;;;;61.88;36.92;;;921.80;896.00;;;;;;4956892;28;20038;-72
2021/06/25 12:08:14;;;;;;;48.17;26.95;;;921.70;921.60;;;;;;4972537;28;20023;-75
2021/06/25 12:11:00;;;;;;;54.63;30.55;;;921.60;947.20;;;;;;4972616;28;20113;-78
2021/06/25 12:13:26;;;;;;;64.60;32.33;;;896.90;921.60;;;;;;4972279;28;20081;-79
2021/06/25 12:15:53;;;;;;;39.72;27.38;;;921.80;947.20;;;;;;4972802;28;20023;-79
2021/06/25 12:18:24;;;;;;;42.33;21.92;;;921.70;947.20;;;;;;4972793;28;20034;-79
2021/06/25 12:21:01;;;;;;;41.10;23.23;;;922.30;896.00;;;;;;4972431;28;20018;-77
2021/06/25 12:23:27;;;;;;;31.70;10.43;;;921.90;921.60;;;;;;4974726;28;20038;-76
2021/06/25 12:25:53;;;;;;;22.13;8.48;;;921.80;896.00;;;;;;4975702;28;20030;-78
2021/06/25 12:28:21;;;;;;;36.85;20.48;;;896.90;896.00;;;;;;4975504;28;20029;-81
2021/06/25 12:30:48;;;;;;;30.42;12.63;;;;;;;;;;4975867;28;20037;-75
2021/06/25 12:33:16;;;;;;;35.28;17.77;;;896.50;921.60;;;;;;4975345;28;20031;-71
2021/06/25 12:35:44;;;;;;;26.80;12.18;;;;;;;;;;4975326;28;20050;-72
2021/06/25 12:38:13;;;;;;;32.40;17.45;;;871.30;972.80;;;;;;4974631;28;20054;-73
2021/06/25 12:40:49;;;;;;;27.63;10.63;;;871.30;972.80;;;;;;4976028;28;20023;-73
2021/06/25 12:43:17;;;;;;;32.08;15.38;;;;;;;;;;4974306;28;20121;-74
2021/06/25 12:45:43;;;;;;;29.45;16.40;;;;;;;;;;4976020;28;20365;-73
2021/06/25 12:48:13;;;;;;;32.53;16.75;;;870.70;998.40;;;;;;4975591;28;20074;-73
2021/06/25 12:50:41;;;;;;;31.88;15.80;;;;;;;;;;4975870;28;20122;-74
2021/06/25 12:53:33;;;;;;;28.10;14.77;;;;;;;;;;4975598;28;20110;-71
2021/06/25 12:56:04;;;;;;;27.63;11.40;;;;;;;;;;4973987;28;20039;-72
2021/06/25 12:58:33;;;;;;;30.88;10.65;;;845.30;1049.60;;;;;;4975697;28;20030;-70
2021/06/25 13:01:03;;;;;;;30.20;14.38;;;845.20;1049.60;;;;;;4976097;28;20031;-70
2021/06/25 13:03:29;;;;;;;29.17;14.40;;;845.00;1049.60;;;;;;4975937;28;20062;-71
2021/06/25 13:05:55;;;;;;;28.42;13.90;;;844.90;1075.20;;;;;;4975416;28;20019;-70
2021/06/25 13:08:24;;;;;;;29.63;14.07;;;;;;;;;;4975735;28;20038;-69
2021/06/25 13:10:51;;;;;;;24.63;13.23;;;820.10;1075.20;;;;;;4975836;28;20023;-71
2021/06/25 13:13:18;;;;;;;25.52;13.35;;;;;;;;;;4975458;28;20023;-70
2021/06/25 13:15:45;;;;;;;32.60;11.20;;;;;;;;;;4975404;28;20074;-71
2021/06/25 13:18:12;;;;;;;25.70;13.15;;;820.00;1075.20;;;;;;4972063;28;20031;-70
2021/06/25 13:21:14;;;;;;;34.83;11.93;;;819.90;1075.20;;;;;;4973245;28;20023;-70
2021/06/25 13:23:42;;;;;;;28.25;12.02;;;819.80;1100.80;;;;;;4975296;28;20034;-70
2021/06/25 13:26:16;;;;;;;33.50;14.07;;;819.80;1100.80;;;;;;4975341;28;20023;-70
2021/06/25 13:28:59;;;;;;;36.25;14.35;;;819.60;1126.40;;;;;;4962136;28;20019;-71
2021/06/25 13:31:28;;;;;;;29.92;13.57;;;;;;;;;;4973648;28;20047;-70
2021/06/25 13:33:53;;;;;;;30.70;13.02;;;819.60;1152.00;;;;;;4974966;28;20031;-69
2021/06/25 13:36:19;;;;;;;23.25;10.88;;;819.40;1152.00;;;;;;4989920;28;20494;-71
2021/06/25 13:38:45;;;;;;;27.27;9.82;;;;;;;;;;4975613;28;20078;-71
2021/06/25 13:41:24;;;;;;;25.10;10.40;;;;;;;;;;4975083;28;20115;-71
2021/06/25 13:43:52;;;;;;;47.33;10.40;;;819.30;1177.60;;;;;;4975017;28;20101;-70
2021/06/25 13:46:19;;;;;;;23.98;9.82;;;;;;;;;;4975008;28;20390;-71
2021/06/25 13:48:46;;;;;;;23.77;8.60;;;;;;;;;;4975172;28;20380;-69
2021/06/25 13:51:12;;;;;;;29.60;10.55;;;;;;;;;;4974885;28;20019;-69
2021/06/25 13:53:41;;;;;;;23.23;7.45;;;;;;;;;;4974936;28;20026;-71
2021/06/25 13:56:09;;;;;;;22.45;7.22;;;;;;;;;;4974996;28;20406;-71
2021/06/25 13:58:54;;;;;;;25.90;8.45;;;;;;;;;;4974575;28;20073;-70